Time;durP1;ratioP1;P1;durP2;ratioP2;P2;SDS_P1;SDS_P2;PMS_P1;PMS_P2;Temp;Humidity;BMP_temperature;BMP_pressure;BME280_temperature;BME280_humidity;BME280_pressure;Samples;Min_cycle;Max_cycle;Signal;HPM_P1;HPM_P2
2022/04/03 00:02:11;;;;;;;;;;;21.50;45.50;;;;;;5076964;28;19924;-42
2022/04/03 00:04:38;;;;;;;;;;;21.50;45.50;;;;;;5058967;28;19924;-42
2022/04/03 00:07:05;;;;;;;;;;;21.50;45.50;;;;;;5082413;28;19930;-44
2022/04/03 00:09:33;;;;;;;;;;;21.50;45.50;;;;;;5097981;28;19986;-42
2022/04/03 00:12:00;;;;;;;;;;;21.50;46.00;;;;;;5096789;28;19924;-42
2022/04/03 00:14:27;;;;;;;;;;;21.50;45.50;;;;;;5096600;28;19931;-42
2022/04/03 00:16:55;;;;;;;;;;;21.50;45.50;;;;;;5096701;28;19924;-43
2022/04/03 00:19:22;;;;;;;;;;;21.50;45.50;;;;;;5096482;28;19979;-41
2022/04/03 00:21:49;;;;;;;;;;;21.40;45.40;;;;;;5095857;28;20013;-42
2022/04/03 00:24:17;;;;;;;;;;;21.50;45.50;;;;;;5096595;28;19928;-42
2022/04/03 00:26:44;;;;;;;;;;;21.50;45.50;;;;;;5096396;28;20378;-42
2022/04/03 00:29:11;;;;;;;;;;;21.50;45.50;;;;;;5096612;28;19924;-43
2022/04/03 00:31:38;;;;;;;;;;;21.50;45.60;;;;;;5096455;28;19928;-42
2022/04/03 00:34:06;;;;;;;;;;;21.40;45.50;;;;;;5096715;28;19924;-42
2022/04/03 00:36:33;;;;;;;;;;;21.40;45.50;;;;;;5096607;28;19924;-42
2022/04/03 00:39:00;;;;;;;;;;;21.40;45.50;;;;;;5095809;28;20398;-42
2022/04/03 00:41:27;;;;;;;;;;;21.40;45.50;;;;;;5096069;28;19924;-42
2022/04/03 00:43:55;;;;;;;;;;;21.40;45.50;;;;;;5096500;28;19928;-42
2022/04/03 00:46:22;;;;;;;;;;;21.40;45.50;;;;;;5096406;28;20345;-42
2022/04/03 00:48:50;;;;;;;;;;;21.40;45.50;;;;;;5096421;28;19959;-42
2022/04/03 00:51:17;;;;;;;;;;;21.40;45.60;;;;;;5095817;28;19924;-43
2022/04/03 00:53:45;;;;;;;;;;;21.40;45.60;;;;;;5094890;28;19924;-42
2022/04/03 00:56:12;;;;;;;;;;;21.40;45.60;;;;;;5094730;28;19954;-42
2022/04/03 00:58:40;;;;;;;;;;;21.40;45.50;;;;;;5095901;28;19977;-42
2022/04/03 01:01:07;;;;;;;;;;;21.40;45.50;;;;;;5096161;28;19988;-45
2022/04/03 01:03:34;;;;;;;;;;;21.40;45.50;;;;;;5095817;28;20002;-42
2022/04/03 01:06:01;;;;;;;;;;;21.40;45.60;;;;;;5095577;28;19924;-43
2022/04/03 01:08:28;;;;;;;;;;;21.40;45.60;;;;;;5094740;28;20419;-42
2022/04/03 01:10:55;;;;;;;;;;;21.40;45.60;;;;;;5095680;28;19924;-42
2022/04/03 01:13:22;;;;;;;;;;;21.40;45.60;;;;;;5096182;28;19931;-45
2022/04/03 01:15:50;;;;;;;;;;;21.40;45.60;;;;;;5095532;28;19924;-42
2022/04/03 01:18:17;;;;;;;;;;;21.40;45.60;;;;;;5095845;28;20384;-45
2022/04/03 01:20:45;;;;;;;;;;;21.40;45.60;;;;;;5094990;28;20381;-42
2022/04/03 01:23:12;;;;;;;;;;;21.40;45.60;;;;;;5067954;28;20384;-44
2022/04/03 01:25:39;;;;;;;;;;;21.40;45.50;;;;;;5057340;28;19928;-42
2022/04/03 01:28:07;;;;;;;;;;;21.40;45.50;;;;;;5075335;28;19931;-42
2022/04/03 01:30:34;;;;;;;;;;;21.40;45.50;;;;;;5075046;28;19928;-44
2022/04/03 01:33:01;;;;;;;;;;;21.40;45.50;;;;;;5057621;28;19925;-43
2022/04/03 01:35:28;;;;;;;;;;;21.40;45.50;;;;;;5057257;28;19925;-42
2022/04/03 01:37:55;;;;;;;;;;;21.40;45.50;;;;;;5074858;28;19924;-42
2022/04/03 01:40:22;;;;;;;;;;;21.40;45.60;;;;;;5074911;28;19931;-43
2022/04/03 01:42:50;;;;;;;;;;;21.40;45.50;;;;;;5040995;28;20350;-44
2022/04/03 01:45:19;;;;;;;;;;;21.40;45.50;;;;;;5074775;28;19925;-42
2022/04/03 01:47:46;;;;;;;;;;;21.40;45.50;;;;;;5057249;28;20308;-44
2022/04/03 01:50:13;;;;;;;;;;;21.40;45.50;;;;;;5074576;28;19924;-44
2022/04/03 01:52:40;;;;;;;;;;;21.40;45.50;;;;;;5058711;28;19935;-43
2022/04/03 01:55:07;;;;;;;;;;;21.40;45.60;;;;;;5094605;28;19931;-43
2022/04/03 01:57:34;;;;;;;;;;;21.40;45.60;;;;;;5094717;28;19928;-45
2022/04/03 02:00:04;;;;;;;;;;;21.40;45.50;;;;;;5076768;28;19931;-42
2022/04/03 02:02:32;;;;;;;;;;;21.40;45.50;;;;;;5094829;28;19928;-44
2022/04/03 02:04:59;;;;;;;;;;;21.40;45.50;;;;;;5077070;28;20340;-42
2022/04/03 02:07:28;;;;;;;;;;;21.40;45.50;;;;;;5094454;28;19955;-42
2022/04/03 02:09:56;;;;;;;;;;;21.40;45.60;;;;;;5074792;28;19932;-43
2022/04/03 02:12:23;;;;;;;;;;;21.40;45.50;;;;;;5074080;28;19932;-43
2022/04/03 02:14:50;;;;;;;;;;;21.40;45.50;;;;;;5074525;28;19925;-42
2022/04/03 02:17:17;;;;;;;;;;;21.40;45.50;;;;;;5074476;28;19925;-42
2022/04/03 02:19:45;;;;;;;;;;;21.40;45.60;;;;;;5074190;28;19928;-47
2022/04/03 02:22:17;;;;;;;;;;;21.40;45.50;;;;;;5074109;28;20291;-42
2022/04/03 02:24:45;;;;;;;;;;;21.40;45.50;;;;;;5090855;28;19978;-42
2022/04/03 02:27:12;;;;;;;;;;;21.40;45.50;;;;;;5094545;28;19936;-42
2022/04/03 02:29:39;;;;;;;;;;;21.40;45.60;;;;;;5094210;28;19974;-48
2022/04/03 02:32:06;;;;;;;;;;;21.40;45.50;;;;;;5094211;28;20379;-42
2022/04/03 02:34:33;;;;;;;;;;;21.40;45.50;;;;;;5094192;28;20041;-42
2022/04/03 02:37:00;;;;;;;;;;;21.40;45.50;;;;;;5094355;28;19924;-42
2022/04/03 02:39:27;;;;;;;;;;;21.40;45.50;;;;;;5093540;28;19924;-42
2022/04/03 02:41:54;;;;;;;;;;;21.40;45.50;;;;;;5094047;28;19928;-43
2022/04/03 02:44:21;;;;;;;;;;;21.40;45.50;;;;;;5094012;28;19928;-42
2022/04/03 02:46:48;;;;;;;;;;;21.40;45.40;;;;;;5094059;28;19993;-42
2022/04/03 02:49:15;;;;;;;;;;;21.40;45.50;;;;;;5093958;28;19978;-42
2022/04/03 02:51:42;;;;;;;;;;;21.40;45.50;;;;;;5093751;28;19924;-42
2022/04/03 02:54:09;;;;;;;;;;;21.40;45.50;;;;;;5065677;28;20445;-45
2022/04/03 02:56:36;;;;;;;;;;;21.40;45.60;;;;;;5073981;28;19928;-43
2022/04/03 02:59:03;;;;;;;;;;;21.40;45.60;;;;;;5073783;28;20300;-45
2022/04/03 03:01:30;;;;;;;;;;;21.40;45.50;;;;;;5056165;28;20325;-43
2022/04/03 03:03:57;;;;;;;;;;;21.40;46.20;;;;;;5073868;28;19925;-44
2022/04/03 03:06:24;;;;;;;;;;;21.40;45.60;;;;;;5073844;28;19977;-42
2022/04/03 03:08:51;;;;;;;;;;;21.30;45.50;;;;;;5060649;28;19924;-42
2022/04/03 03:11:18;;;;;;;;;;;21.30;45.50;;;;;;5094002;28;20273;-42
2022/04/03 03:13:45;;;;;;;;;;;21.30;45.50;;;;;;5093949;28;20314;-46
2022/04/03 03:16:12;;;;;;;;;;;21.40;45.60;;;;;;5093671;28;20371;-42
2022/04/03 03:18:39;;;;;;;;;;;21.40;45.50;;;;;;5093962;28;20007;-42
2022/04/03 03:21:06;;;;;;;;;;;21.40;45.50;;;;;;5096685;28;19939;-43
2022/04/03 03:23:34;;;;;;;;;;;21.40;45.50;;;;;;5097652;28;19969;-42
2022/04/03 03:26:01;;;;;;;;;;;21.40;45.50;;;;;;5079993;28;20023;-42
2022/04/03 03:28:28;;;;;;;;;;;21.40;45.40;;;;;;5097898;28;19924;-42
2022/04/03 03:30:55;;;;;;;;;;;21.40;45.50;;;;;;5098756;28;19924;-42
2022/04/03 03:33:22;;;;;;;;;;;21.40;45.50;;;;;;5079458;28;20396;-44
2022/04/03 03:35:49;;;;;;;;;;;21.30;45.40;;;;;;5097826;28;19924;-42
2022/04/03 03:38:16;;;;;;;;;;;21.40;45.60;;;;;;5079877;28;19973;-42
2022/04/03 03:40:44;;;;;;;;;;;21.30;45.40;;;;;;5096668;28;19951;-42
2022/04/03 03:43:11;;;;;;;;;;;21.40;45.40;;;;;;5097504;28;20299;-43
2022/04/03 03:45:39;;;;;;;;;;;21.40;45.40;;;;;;5097333;28;19924;-44
2022/04/03 03:48:08;;;;;;;;;;;21.40;45.50;;;;;;5097113;28;19928;-43
2022/04/03 03:50:35;;;;;;;;;;;21.40;45.40;;;;;;5096930;28;19924;-42
2022/04/03 03:53:02;;;;;;;;;;;21.40;45.40;;;;;;5097448;28;19949;-42
2022/04/03 03:55:29;;;;;;;;;;;21.40;45.50;;;;;;5096298;28;19977;-43
2022/04/03 03:57:56;;;;;;;;;;;21.40;45.40;;;;;;5097114;28;19924;-42
2022/04/03 04:00:23;;;;;;;;;;;21.40;45.40;;;;;;5097067;28;19938;-42
2022/04/03 04:02:50;;;;;;;;;;;21.40;45.40;;;;;;5096587;28;19924;-42
2022/04/03 04:05:17;;;;;;;;;;;21.40;45.50;;;;;;5096578;28;19924;-43
2022/04/03 04:07:45;;;;;;;;;;;21.40;45.40;;;;;;5096897;28;19972;-42
2022/04/03 04:10:13;;;;;;;;;;;21.40;45.50;;;;;;5096340;28;19950;-42
2022/04/03 04:12:41;;;;;;;;;;;21.40;45.50;;;;;;5097167;28;19924;-43
2022/04/03 04:15:09;;;;;;;;;;;21.40;45.40;;;;;;5096659;28;19925;-41
2022/04/03 04:17:38;;;;;;;;;;;21.40;45.40;;;;;;5097051;28;20272;-42
2022/04/03 04:20:06;;;;;;;;;;;21.40;45.40;;;;;;5096433;28;20296;-43
2022/04/03 04:22:33;;;;;;;;;;;21.40;45.40;;;;;;5096721;28;20330;-44
2022/04/03 04:25:00;;;;;;;;;;;21.40;45.40;;;;;;5096012;28;19924;-42
2022/04/03 04:27:27;;;;;;;;;;;21.40;45.40;;;;;;5096806;28;19928;-42
2022/04/03 04:29:54;;;;;;;;;;;21.40;45.50;;;;;;5096796;28;19924;-42
2022/04/03 04:32:21;;;;;;;;;;;21.30;45.40;;;;;;5096175;28;19977;-43
2022/04/03 04:34:49;;;;;;;;;;;21.40;45.40;;;;;;5096716;28;19928;-42
2022/04/03 04:37:17;;;;;;;;;;;21.40;45.40;;;;;;5096667;28;20003;-42
2022/04/03 04:39:44;;;;;;;;;;;21.40;45.40;;;;;;5091065;28;19932;-42
2022/04/03 04:42:12;;;;;;;;;;;21.40;45.40;;;;;;5075979;28;20011;-42
2022/04/03 04:44:40;;;;;;;;;;;21.40;45.40;;;;;;5075818;28;19924;-43
2022/04/03 04:47:07;;;;;;;;;;;21.40;45.40;;;;;;5075946;28;20023;-42
2022/04/03 04:49:34;;;;;;;;;;;21.40;45.40;;;;;;5076138;28;19931;-42
2022/04/03 04:52:01;;;;;;;;;;;21.40;46.00;;;;;;5075699;28;19925;-43
2022/04/03 04:54:29;;;;;;;;;;;21.40;45.40;;;;;;5058061;28;19924;-41
2022/04/03 04:56:57;;;;;;;;;;;21.40;45.40;;;;;;5076064;28;19950;-42
2022/04/03 04:59:27;;;;;;;;;;;21.40;45.40;;;;;;5075912;28;19954;-42
2022/04/03 05:01:56;;;;;;;;;;;21.40;45.40;;;;;;5075592;28;20477;-46
2022/04/03 05:04:23;;;;;;;;;;;21.40;45.40;;;;;;5075562;28;19932;-43
2022/04/03 05:06:51;;;;;;;;;;;21.40;45.40;;;;;;5075869;28;19970;-42
2022/04/03 05:09:18;;;;;;;;;;;21.40;45.40;;;;;;5075337;28;19924;-42
2022/04/03 05:11:46;;;;;;;;;;;21.40;45.40;;;;;;5094162;28;19928;-42
2022/04/03 05:14:13;;;;;;;;;;;21.40;45.40;;;;;;5095969;28;19946;-43
2022/04/03 05:16:40;;;;;;;;;;;21.40;45.40;;;;;;5095891;28;20010;-43
2022/04/03 05:19:11;;;;;;;;;;;21.40;45.40;;;;;;5095546;28;19924;-42
2022/04/03 05:21:38;;;;;;;;;;;21.40;45.40;;;;;;5095202;28;19924;-42
2022/04/03 05:24:05;;;;;;;;;;;21.40;45.30;;;;;;5095515;28;19959;-42
2022/04/03 05:26:32;;;;;;;;;;;21.40;45.30;;;;;;5061224;28;19924;-42
2022/04/03 05:28:59;;;;;;;;;;;21.40;45.30;;;;;;5075373;28;20296;-42
2022/04/03 05:31:26;;;;;;;;;;;21.40;45.30;;;;;;5075069;28;19924;-42
2022/04/03 05:33:56;;;;;;;;;;;21.40;45.30;;;;;;5075275;28;19924;-42
2022/04/03 05:36:23;;;;;;;;;;;21.40;45.30;;;;;;5075243;28;19971;-42
2022/04/03 05:38:50;;;;;;;;;;;21.40;45.30;;;;;;5074808;28;19978;-42
2022/04/03 05:41:17;;;;;;;;;;;21.40;45.20;;;;;;5075006;28;19925;-45
2022/04/03 05:43:44;;;;;;;;;;;21.40;45.20;;;;;;5074511;28;19925;-45
2022/04/03 05:46:11;;;;;;;;;;;21.40;45.20;;;;;;5057174;28;19924;-43
2022/04/03 05:48:38;;;;;;;;;;;21.40;45.20;;;;;;5074627;28;19930;-42
2022/04/03 05:51:05;;;;;;;;;;;21.50;45.20;;;;;;5040662;28;19929;-42
2022/04/03 05:53:32;;;;;;;;;;;21.50;45.20;;;;;;5074548;28;19978;-42
2022/04/03 05:55:59;;;;;;;;;;;21.50;45.20;;;;;;5074779;28;19993;-42
2022/04/03 05:58:26;;;;;;;;;;;21.50;45.30;;;;;;5075387;28;19971;-42
2022/04/03 06:00:53;;;;;;;;;;;21.50;45.20;;;;;;5074458;28;20004;-42
2022/04/03 06:03:20;;;;;;;;;;;21.50;45.20;;;;;;5074468;28;20380;-43
2022/04/03 06:05:47;;;;;;;;;;;21.50;45.20;;;;;;5074717;28;19925;-42
2022/04/03 06:08:14;;;;;;;;;;;21.50;45.20;;;;;;5074457;28;19932;-43
2022/04/03 06:10:41;;;;;;;;;;;21.50;45.10;;;;;;5078905;28;20023;-42
2022/04/03 06:13:09;;;;;;;;;;;21.50;45.10;;;;;;5094546;28;19947;-43
2022/04/03 06:15:38;;;;;;;;;;;21.50;45.10;;;;;;5094712;28;20277;-42
2022/04/03 06:18:06;;;;;;;;;;;21.50;45.10;;;;;;5094452;28;19928;-43
2022/04/03 06:20:33;;;;;;;;;;;21.50;45.00;;;;;;5093902;28;20329;-45
2022/04/03 06:23:30;;;;;;;;;;;21.50;45.00;;;;;;5094360;28;19979;-43
2022/04/03 06:25:57;;;;;;;;;;;21.50;45.00;;;;;;5031219;28;20385;-43
2022/04/03 06:28:25;;;;;;;;;;;21.50;45.00;;;;;;5032017;28;20388;-43
2022/04/03 06:30:56;;;;;;;;;;;21.60;45.00;;;;;;5032266;28;19928;-43
2022/04/03 06:33:24;;;;;;;;;;;21.60;45.00;;;;;;5031882;28;20007;-42
2022/04/03 06:35:51;;;;;;;;;;;21.60;45.00;;;;;;5032001;28;19929;-43
2022/04/03 06:38:18;;;;;;;;;;;21.60;44.90;;;;;;5031886;28;20012;-42
2022/04/03 06:40:50;;;;;;;;;;;21.60;45.00;;;;;;5030999;28;19933;-44
2022/04/03 06:43:18;;;;;;;;;;;21.60;44.90;;;;;;5015711;28;20385;-44
2022/04/03 06:45:46;;;;;;;;;;;21.60;44.90;;;;;;5031642;28;20384;-46
2022/04/03 06:48:13;;;;;;;;;;;21.60;44.90;;;;;;5031718;28;19925;-48
2022/04/03 06:50:40;;;;;;;;;;;21.60;44.90;;;;;;5031594;28;19925;-42
2022/04/03 06:53:07;;;;;;;;;;;21.60;44.80;;;;;;5031638;28;19975;-42
2022/04/03 06:55:34;;;;;;;;;;;21.60;44.80;;;;;;5030461;28;19979;-45
2022/04/03 06:58:02;;;;;;;;;;;21.60;44.70;;;;;;5030829;28;19995;-42
2022/04/03 07:00:29;;;;;;;;;;;21.70;44.80;;;;;;5030956;28;19925;-45
2022/04/03 07:02:56;;;;;;;;;;;21.70;44.80;;;;;;5062356;28;19928;-42
2022/04/03 07:05:24;;;;;;;;;;;21.70;44.70;;;;;;5073853;28;19960;-43
2022/04/03 07:07:52;;;;;;;;;;;21.70;44.70;;;;;;5073547;28;20388;-43
2022/04/03 07:10:20;;;;;;;;;;;21.70;44.60;;;;;;5073493;28;20437;-42
2022/04/03 07:12:47;;;;;;;;;;;21.70;44.60;;;;;;5089531;28;19928;-42
2022/04/03 07:15:14;;;;;;;;;;;21.80;44.50;;;;;;5093594;28;19924;-42
2022/04/03 07:17:42;;;;;;;;;;;21.80;44.50;;;;;;5093558;28;19952;-42
2022/04/03 07:20:12;;;;;;;;;;;21.80;44.50;;;;;;5093436;28;19924;-42
2022/04/03 07:22:43;;;;;;;;;;;21.90;44.50;;;;;;5093525;28;19931;-43
2022/04/03 07:25:11;;;;;;;;;;;21.80;44.30;;;;;;5076003;28;19924;-42
2022/04/03 07:27:38;;;;;;;;;;;21.90;44.30;;;;;;5092405;28;19924;-42
2022/04/03 07:30:08;;;;;;;;;;;21.90;44.30;;;;;;5093435;28;19924;-42
2022/04/03 07:32:38;;;;;;;;;;;22.00;44.30;;;;;;5076468;28;20422;-42
2022/04/03 07:35:05;;;;;;;;;;;22.00;44.20;;;;;;5093429;28;19924;-42
2022/04/03 07:37:32;;;;;;;;;;;22.00;44.20;;;;;;5093768;28;19994;-42
2022/04/03 07:40:00;;;;;;;;;;;22.00;44.20;;;;;;5093288;28;19924;-42
2022/04/03 07:42:27;;;;;;;;;;;22.00;44.20;;;;;;5092507;28;19997;-47
2022/04/03 07:44:54;;;;;;;;;;;22.00;44.10;;;;;;5093832;28;19925;-42
2022/04/03 07:47:21;;;;;;;;;;;22.00;44.10;;;;;;5093680;28;19928;-43
2022/04/03 07:49:48;;;;;;;;;;;22.10;44.10;;;;;;5093510;28;20282;-43
2022/04/03 07:52:15;;;;;;;;;;;22.10;44.10;;;;;;5093255;28;19924;-42
2022/04/03 07:54:42;;;;;;;;;;;22.10;44.00;;;;;;5093480;28;19924;-42
2022/04/03 07:57:10;;;;;;;;;;;22.10;43.90;;;;;;5092365;28;20421;-43
2022/04/03 07:59:37;;;;;;;;;;;22.10;43.90;;;;;;5093558;28;20264;-42
2022/04/03 08:02:04;;;;;;;;;;;22.20;43.90;;;;;;5093155;28;19931;-41
2022/04/03 08:04:31;;;;;;;;;;;22.20;43.80;;;;;;5093495;28;19978;-42
2022/04/03 08:06:58;;;;;;;;;;;22.20;43.80;;;;;;5096366;28;19924;-44
2022/04/03 08:09:25;;;;;;;;;;;22.20;43.80;;;;;;5097063;28;19924;-44
2022/04/03 08:11:52;;;;;;;;;;;22.30;43.80;;;;;;5096219;28;20281;-42
2022/04/03 08:14:19;;;;;;;;;;;22.30;43.70;;;;;;5097047;28;20362;-45
2022/04/03 08:16:46;;;;;;;;;;;22.30;43.70;;;;;;5097003;28;20369;-45
2022/04/03 08:19:14;;;;;;;;;;;22.40;43.70;;;;;;5096958;28;19928;-44
2022/04/03 08:21:41;;;;;;;;;;;22.40;43.60;;;;;;5096051;28;19963;-42
2022/04/03 08:24:08;;;;;;;;;;;22.40;43.60;;;;;;5096548;28;20433;-42
2022/04/03 08:26:35;;;;;;;;;;;22.40;43.40;;;;;;5095739;28;19924;-42
2022/04/03 08:29:02;;;;;;;;;;;22.50;43.40;;;;;;5095653;28;19924;-42
2022/04/03 08:31:29;;;;;;;;;;;22.50;43.40;;;;;;5096635;28;19924;-46
2022/04/03 08:33:57;;;;;;;;;;;22.60;43.40;;;;;;5096461;28;19928;-42
2022/04/03 08:36:25;;;;;;;;;;;22.60;43.30;;;;;;5096641;28;19947;-43
2022/04/03 08:38:52;;;;;;;;;;;22.60;43.10;;;;;;5096640;28;20329;-43
2022/04/03 08:41:19;;;;;;;;;;;22.60;43.00;;;;;;5097026;28;19978;-42
2022/04/03 08:43:47;;;;;;;;;;;22.70;43.00;;;;;;5061582;28;19924;-42
2022/04/03 08:46:17;;;;;;;;;;;22.70;43.00;;;;;;5076539;28;19978;-44
2022/04/03 08:48:45;;;;;;;;;;;22.70;42.90;;;;;;5075634;28;19928;-42
2022/04/03 08:51:12;;;;;;;;;;;22.80;43.00;;;;;;5075972;28;20323;-42
2022/04/03 08:53:39;;;;;;;;;;;22.80;42.90;;;;;;5075807;28;19932;-42
2022/04/03 08:56:06;;;;;;;;;;;22.80;42.90;;;;;;5076111;28;20346;-43
2022/04/03 08:58:33;;;;;;;;;;;22.80;42.90;;;;;;5075613;28;19925;-42
2022/04/03 09:01:01;;;;;;;;;;;22.80;42.80;;;;;;5075696;28;19924;-42
2022/04/03 09:03:28;;;;;;;;;;;22.90;42.90;;;;;;5075657;28;19924;-42
2022/04/03 09:06:16;;;;;;;;;;;22.80;42.80;;;;;;5075942;28;20300;-42
2022/04/03 09:08:43;;;;;;;;;;;22.90;42.80;;;;;;5075365;28;19931;-44
2022/04/03 09:11:11;;;;;;;;;;;22.90;42.70;;;;;;5061122;28;19925;-42
2022/04/03 09:13:40;;;;;;;;;;;22.90;42.60;;;;;;5081887;28;19925;-43
2022/04/03 09:16:07;;;;;;;;;;;23.00;42.70;;;;;;5076700;28;19932;-42
2022/04/03 09:18:44;;;;;;;;;;;23.00;42.60;;;;;;5094733;28;19930;-43
2022/04/03 09:21:16;;;;;;;;;;;23.10;42.60;;;;;;5094900;28;19924;-42
2022/04/03 09:24:07;;;;;;;;;;;23.10;42.60;;;;;;5095594;28;19924;-44
2022/04/03 09:26:35;;;;;;;;;;;23.10;42.60;;;;;;5087822;28;20011;-42
2022/04/03 09:29:09;;;;;;;;;;;23.10;42.40;;;;;;5094237;28;19925;-42
2022/04/03 09:31:37;;;;;;;;;;;23.10;42.40;;;;;;5095164;28;19928;-42
2022/04/03 09:34:06;;;;;;;;;;;23.10;42.30;;;;;;5095169;28;20040;-42
2022/04/03 09:36:35;;;;;;;;;;;23.20;42.40;;;;;;5095054;28;19924;-42
2022/04/03 09:39:15;;;;;;;;;;;23.20;42.40;;;;;;5095026;28;19924;-42
2022/04/03 09:42:00;;;;;;;;;;;23.20;42.40;;;;;;5095328;28;19928;-41
2022/04/03 09:44:37;;;;;;;;;;;23.20;42.40;;;;;;5094004;28;19932;-42
2022/04/03 09:47:13;;;;;;;;;;;23.20;42.40;;;;;;5094854;28;19974;-42
2022/04/03 09:49:42;;;;;;;;;;;23.20;42.40;;;;;;5094602;28;19988;-42
2022/04/03 09:52:11;;;;;;;;;;;23.20;42.40;;;;;;5094599;28;19924;-42
2022/04/03 09:54:39;;;;;;;;;;;23.20;42.40;;;;;;5094687;28;19931;-42
2022/04/03 09:57:23;;;;;;;;;;;23.20;42.40;;;;;;5094459;28;20406;-42
2022/04/03 09:59:51;;;;;;;;;;;23.20;42.40;;;;;;5094044;28;20321;-43
2022/04/03 10:02:19;;;;;;;;;;;23.20;42.50;;;;;;5094862;28;19923;-44
2022/04/03 10:04:47;;;;;;;;;;;23.20;42.50;;;;;;5094527;28;19924;-42
2022/04/03 10:07:14;;;;;;;;;;;23.20;42.50;;;;;;5094398;28;19974;-43
2022/04/03 10:09:46;;;;;;;;;;;23.20;42.50;;;;;;5094350;28;19977;-42
2022/04/03 10:12:18;;;;;;;;;;;23.20;42.50;;;;;;5094262;28;19928;-42
2022/04/03 10:14:49;;;;;;;;;;;23.20;42.40;;;;;;5077065;28;20091;-42
2022/04/03 10:17:17;;;;;;;;;;;23.30;42.50;;;;;;5074286;28;19939;-42
2022/04/03 10:19:45;;;;;;;;;;;23.30;42.50;;;;;;5073805;28;19924;-42
2022/04/03 10:22:22;;;;;;;;;;;23.30;42.50;;;;;;5073785;28;20403;-42
2022/04/03 10:24:51;;;;;;;;;;;23.30;42.40;;;;;;5073862;28;19928;-42
2022/04/03 10:27:22;;;;;;;;;;;23.30;42.40;;;;;;5074148;28;20376;-42
2022/04/03 10:29:49;;;;;;;;;;;23.40;42.40;;;;;;5089195;28;19928;-44
2022/04/03 10:32:24;;;;;;;;;;;23.40;42.30;;;;;;5094331;28;20272;-41
2022/04/03 10:34:54;;;;;;;;;;;23.40;42.20;;;;;;5094126;28;19963;-45
2022/04/03 10:37:42;;;;;;;;;;;23.50;42.20;;;;;;5094907;28;19928;-42
2022/04/03 10:40:10;;;;;;;;;;;23.50;42.20;;;;;;5094163;28;20010;-42
2022/04/03 10:42:51;;;;;;;;;;;23.50;42.10;;;;;;5094152;28;19928;-42
2022/04/03 10:45:19;;;;;;;;;;;23.60;42.10;;;;;;5074654;28;19924;-42
2022/04/03 10:47:47;;;;;;;;;;;23.60;42.10;;;;;;5073412;28;19925;-42
2022/04/03 10:50:14;;;;;;;;;;;23.70;42.00;;;;;;5073306;28;19929;-42
2022/04/03 10:52:41;;;;;;;;;;;23.70;42.00;;;;;;5073728;28;19970;-43
2022/04/03 10:55:17;;;;;;;;;;;23.70;42.00;;;;;;5073519;28;19924;-42
2022/04/03 10:57:45;;;;;;;;;;;23.70;41.90;;;;;;5073448;28;19932;-42
2022/04/03 11:00:12;;;;;;;;;;;23.70;41.90;;;;;;5089435;28;19935;-42
2022/04/03 11:02:39;;;;;;;;;;;23.70;41.90;;;;;;5093584;28;19924;-45
2022/04/03 11:05:36;;;;;;;;;;;23.70;41.80;;;;;;5093575;28;19928;-42
2022/04/03 11:08:03;;;;;;;;;;;23.70;41.90;;;;;;5062909;28;19973;-42
2022/04/03 11:10:42;;;;;;;;;;;23.70;41.90;;;;;;5093567;28;20291;-42
2022/04/03 11:13:09;;;;;;;;;;;23.70;41.90;;;;;;5093752;28;19993;-43
2022/04/03 11:16:02;;;;;;;;;;;23.80;41.90;;;;;;5092863;28;19924;-42
2022/04/03 11:18:33;;;;;;;;;;;23.70;41.90;;;;;;5090770;28;20397;-43
2022/04/03 11:21:19;;;;;;;;;;;23.80;41.90;;;;;;5093046;28;19924;-42
2022/04/03 11:23:48;;;;;;;;;;;23.80;41.90;;;;;;5093373;28;19924;-44
2022/04/03 11:26:16;;;;;;;;;;;23.80;42.00;;;;;;5075503;28;19928;-42
2022/04/03 11:28:44;;;;;;;;;;;23.80;41.90;;;;;;5092251;28;19924;-47
2022/04/03 11:31:12;;;;;;;;;;;23.80;41.90;;;;;;5093595;28;19924;-42
2022/04/03 11:33:39;;;;;;;;;;;23.80;41.90;;;;;;5093602;28;19929;-42
2022/04/03 11:36:07;;;;;;;;;;;23.80;42.00;;;;;;5085276;28;19974;-44
2022/04/03 11:38:37;;;;;;;;;;;23.80;41.90;;;;;;5072171;28;20403;-42
2022/04/03 11:41:06;;;;;;;;;;;23.80;41.90;;;;;;5074377;28;19963;-43
2022/04/03 11:43:33;;;;;;;;;;;23.80;41.90;;;;;;5076880;28;20387;-44
2022/04/03 11:46:01;;;;;;;;;;;23.90;42.00;;;;;;5096085;28;20005;-44
2022/04/03 11:48:30;;;;;;;;;;;23.90;41.90;;;;;;5097039;28;20011;-44
2022/04/03 11:51:04;;;;;;;;;;;23.90;41.90;;;;;;5095860;28;19977;-43
2022/04/03 11:53:32;;;;;;;;;;;23.90;41.90;;;;;;5096818;28;19931;-41
2022/04/03 11:56:06;;;;;;;;;;;23.90;41.90;;;;;;5095926;28;20287;-42
2022/04/03 11:58:36;;;;;;;;;;;23.90;41.90;;;;;;5097197;28;19960;-42
2022/04/03 12:01:04;;;;;;;;;;;23.80;42.30;;;;;;5095959;28;19924;-42
2022/04/03 12:03:33;;;;;;;;;;;23.80;42.20;;;;;;5097172;28;20298;-43
2022/04/03 12:06:14;;;;;;;;;;;23.80;42.20;;;;;;5097041;28;20019;-42
2022/04/03 12:08:47;;;;;;;;;;;23.80;42.20;;;;;;5096683;28;20023;-45
2022/04/03 12:11:24;;;;;;;;;;;23.70;42.20;;;;;;5096797;28;19924;-47
2022/04/03 12:13:55;;;;;;;;;;;23.70;42.30;;;;;;5096678;28;19962;-43
2022/04/03 12:16:23;;;;;;;;;;;23.70;42.40;;;;;;5077173;28;19993;-46
2022/04/03 12:19:01;;;;;;;;;;;23.60;42.50;;;;;;5075444;28;19933;-46
2022/04/03 12:21:40;;;;;;;;;;;23.50;42.50;;;;;;5075833;28;20320;-42
2022/04/03 12:24:08;;;;;;;;;;;23.50;42.60;;;;;;5076109;28;19946;-43
2022/04/03 12:26:39;;;;;;;;;;;23.50;42.70;;;;;;5076112;28;20030;-42
2022/04/03 12:29:07;;;;;;;;;;;23.50;42.80;;;;;;5076150;28;19959;-42
2022/04/03 12:31:34;;;;;;;;;;;23.40;42.90;;;;;;5095661;28;19924;-42
2022/04/03 12:34:04;;;;;;;;;;;23.40;43.00;;;;;;5096541;28;20341;-44
2022/04/03 12:36:40;;;;;;;;;;;23.30;43.00;;;;;;5096558;28;19928;-42
2022/04/03 12:39:26;;;;;;;;;;;23.30;43.20;;;;;;5095998;28;19924;-42
2022/04/03 12:41:53;;;;;;;;;;;23.30;43.20;;;;;;5078186;28;20011;-42
2022/04/03 12:44:20;;;;;;;;;;;23.30;43.20;;;;;;5095721;28;20335;-42
2022/04/03 12:46:47;;;;;;;;;;;23.30;43.20;;;;;;5096062;28;19927;-42
2022/04/03 12:49:17;;;;;;;;;;;23.30;43.20;;;;;;5096302;28;19928;-42
2022/04/03 12:51:47;;;;;;;;;;;23.30;43.20;;;;;;5095930;28;19924;-43
2022/04/03 12:54:15;;;;;;;;;;;23.30;43.20;;;;;;5095645;28;20329;-42
2022/04/03 12:59:38;;;;;;;;;;;23.40;43.20;;;;;;5095231;28;20303;-44
2022/04/03 13:02:06;;;;;;;;;;;23.40;43.20;;;;;;5095868;28;19924;-44
2022/04/03 13:04:33;;;;;;;;;;;23.40;43.10;;;;;;5095726;28;20375;-43
2022/04/03 13:07:00;;;;;;;;;;;23.40;43.10;;;;;;5095995;28;19931;-42
2022/04/03 13:09:27;;;;;;;;;;;23.40;43.10;;;;;;5095842;28;19928;-42
2022/04/03 13:11:54;;;;;;;;;;;23.40;43.10;;;;;;5095352;28;19928;-42
2022/04/03 13:14:26;;;;;;;;;;;23.50;43.10;;;;;;5095866;28;19950;-42
2022/04/03 13:16:57;;;;;;;;;;;23.50;43.00;;;;;;5094915;28;19974;-43
2022/04/03 13:19:25;;;;;;;;;;;23.50;43.00;;;;;;5095460;28;19930;-42
2022/04/03 13:21:53;;;;;;;;;;;23.50;43.10;;;;;;5095301;28;19924;-43
2022/04/03 13:24:21;;;;;;;;;;;23.50;43.10;;;;;;5095505;28;19951;-42
2022/04/03 13:26:50;;;;;;;;;;;23.50;43.10;;;;;;5095549;28;20268;-42
2022/04/03 13:29:18;;;;;;;;;;;23.50;43.10;;;;;;5095255;28;20446;-43
2022/04/03 13:31:46;;;;;;;;;;;23.50;43.10;;;;;;5094599;28;19931;-42
2022/04/03 13:34:13;;;;;;;;;;;23.50;43.10;;;;;;5095386;28;19977;-43
2022/04/03 13:36:40;;;;;;;;;;;23.50;43.10;;;;;;5095284;28;19993;-42
2022/04/03 13:39:08;;;;;;;;;;;23.50;43.10;;;;;;5095496;28;19924;-42
2022/04/03 13:41:43;;;;;;;;;;;23.50;43.10;;;;;;5095331;28;19930;-43
2022/04/03 13:44:12;;;;;;;;;;;23.50;43.10;;;;;;5094886;28;19928;-42
2022/04/03 13:46:39;;;;;;;;;;;23.50;43.00;;;;;;5093976;28;19924;-42
2022/04/03 13:49:07;;;;;;;;;;;23.50;43.00;;;;;;5095268;28;19924;-43
2022/04/03 13:51:38;;;;;;;;;;;23.50;43.00;;;;;;5094704;28;19993;-43
2022/04/03 13:54:05;;;;;;;;;;;23.50;43.00;;;;;;5094715;28;19924;-42
2022/04/03 13:56:32;;;;;;;;;;;23.50;43.00;;;;;;5094981;28;20276;-42
2022/04/03 13:59:03;;;;;;;;;;;23.50;43.00;;;;;;5094950;28;19967;-42
2022/04/03 14:01:30;;;;;;;;;;;23.50;43.00;;;;;;5093510;28;19924;-43
2022/04/03 14:03:57;;;;;;;;;;;23.50;43.00;;;;;;5093992;28;19924;-44
2022/04/03 14:06:24;;;;;;;;;;;23.50;43.00;;;;;;5094543;28;19968;-42
2022/04/03 14:08:51;;;;;;;;;;;23.50;43.00;;;;;;5094503;28;19928;-45
2022/04/03 14:11:20;;;;;;;;;;;23.50;43.00;;;;;;5076165;28;19985;-42
2022/04/03 14:13:47;;;;;;;;;;;23.50;43.00;;;;;;5094422;28;19931;-43
2022/04/03 14:16:15;;;;;;;;;;;23.50;43.00;;;;;;5093359;28;19924;-42
2022/04/03 14:18:42;;;;;;;;;;;23.50;43.00;;;;;;5094590;28;20027;-43
2022/04/03 14:21:09;;;;;;;;;;;23.50;43.00;;;;;;5093935;28;19924;-44
2022/04/03 14:23:36;;;;;;;;;;;23.50;43.10;;;;;;5094032;28;19924;-42
2022/04/03 14:26:05;;;;;;;;;;;23.50;43.10;;;;;;5094130;28;20345;-43
2022/04/03 14:28:33;;;;;;;;;;;23.50;43.20;;;;;;5094113;28;19931;-42